Aeroporto :
LOGIN :

Iscrizione | Disclaimer

   EN    FR    IT 

 










Sommario :    VFR   VFR Marginale   IFR   IFR Intensivo   IFR Molto Intensivo
Visibilità : 
Base nubi : 
>= 8 km
>= 3000ft
5 / 8 km
1000 / 3000 ft
1500m / 5 km
500 / 1000 ft
800 / 1500m
200 / 500 ft
< 800m
< 200 ft
Simboli :   Temporali  Nebbia  Neve Forte  Precipitazioni Forti  Vento > 20 kt
SIGMETs :   Varie  Temporali  Ghiacco  Turbolenza  Onda orograficha  Ceneri Vulcaniche






- Altitudine del aeroporto : 600 ft
- Codice IATA : VIE


LOWW - Vienna Schwechat

ULTIMO METAR :
  • 091220Z 02009KT 350V050 CAVOK 22/M04 Q1021 NOSIG

METARs OBSOLETI :
  • 091150Z 36008KT 310V030 CAVOK 22/M01 Q1022 NOSIG
  • 091120Z VRB03KT CAVOK 20/00 Q1022 NOSIG
  • 091050Z 36005KT 300V050 CAVOK 19/M00 Q1022 NOSIG
  • 091020Z 12003KT 080V190 CAVOK 18/01 Q1022 NOSIG
  • 090950Z VRB02KT CAVOK 17/00 Q1023 NOSIG

TAF TAF LOWW
Valido dal 09 a 12 ore il 10 a 18 ore UTC


091115Z 0912/1018 VRB03KT CAVOK TX23/0915Z TN08/1004Z
TEMPO 0919/1015 34010KT



MetMap, La meteo Aeronautica in un colpo d'occhio ! - Copyright ORBIFLY Dicembre 2007 - Disclaimer

ORBIFLY MET'MAP TEAM :

Programmazione e sviluppo : Alexandra Zaïnal
Concezione : Baudouin d'Aumeries
Aiuto per la programmazione : Marc-Olivier Méhu
Supporto tecnico e logistico : Manuel Goepfert
Aiuto per la traduzione : Arnaldo La Scala

Contatto : metmap@orbifly.com




FONTI E CREDITI :

   NOAA